sensor_id;sensor_type;location;lat;lon;timestamp;P1;durP1;ratioP1;P2;durP2;ratioP2
3993;SDS011;2011;48.238;13.948;2023-02-19T00:01:31;8.70;;;2.63;;
3993;SDS011;2011;48.238;13.948;2023-02-19T00:04:00;7.73;;;2.80;;
3993;SDS011;2011;48.238;13.948;2023-02-19T00:06:29;5.10;;;2.90;;
3993;SDS011;2011;48.238;13.948;2023-02-19T00:08:57;5.90;;;2.67;;
3993;SDS011;2011;48.238;13.948;2023-02-19T00:11:26;4.53;;;3.27;;
3993;SDS011;2011;48.238;13.948;2023-02-19T00:13:55;7.23;;;3.40;;
3993;SDS011;2011;48.238;13.948;2023-02-19T00:16:23;5.63;;;3.10;;
3993;SDS011;2011;48.238;13.948;2023-02-19T00:18:52;5.50;;;3.03;;
3993;SDS011;2011;48.238;13.948;2023-02-19T00:21:20;4.93;;;3.03;;
3993;SDS011;2011;48.238;13.948;2023-02-19T00:23:47;5.27;;;2.87;;
3993;SDS011;2011;48.238;13.948;2023-02-19T00:26:15;5.33;;;3.03;;
3993;SDS011;2011;48.238;13.948;2023-02-19T00:28:44;4.37;;;3.00;;
3993;SDS011;2011;48.238;13.948;2023-02-19T00:31:14;5.90;;;3.20;;
3993;SDS011;2011;48.238;13.948;2023-02-19T00:33:43;4.70;;;3.00;;
3993;SDS011;2011;48.238;13.948;2023-02-19T00:36:10;4.43;;;2.80;;
3993;SDS011;2011;48.238;13.948;2023-02-19T00:38:38;5.33;;;2.63;;
3993;SDS011;2011;48.238;13.948;2023-02-19T00:41:07;5.43;;;3.30;;
3993;SDS011;2011;48.238;13.948;2023-02-19T00:43:46;5.83;;;3.20;;
3993;SDS011;2011;48.238;13.948;2023-02-19T00:46:14;4.63;;;3.03;;
3993;SDS011;2011;48.238;13.948;2023-02-19T00:48:41;7.70;;;2.90;;
3993;SDS011;2011;48.238;13.948;2023-02-19T00:51:08;6.30;;;3.10;;
3993;SDS011;2011;48.238;13.948;2023-02-19T00:53:35;19.33;;;3.20;;
3993;SDS011;2011;48.238;13.948;2023-02-19T00:56:02;5.10;;;2.90;;
3993;SDS011;2011;48.238;13.948;2023-02-19T00:58:30;5.50;;;3.40;;
3993;SDS011;2011;48.238;13.948;2023-02-19T01:00:58;5.20;;;3.13;;
3993;SDS011;2011;48.238;13.948;2023-02-19T01:03:26;5.03;;;2.90;;
3993;SDS011;2011;48.238;13.948;2023-02-19T01:05:53;7.43;;;3.20;;
3993;SDS011;2011;48.238;13.948;2023-02-19T01:08:20;5.90;;;3.20;;
3993;SDS011;2011;48.238;13.948;2023-02-19T01:10:47;4.10;;;2.97;;
3993;SDS011;2011;48.238;13.948;2023-02-19T01:13:13;12.40;;;2.67;;
3993;SDS011;2011;48.238;13.948;2023-02-19T01:15:41;4.73;;;2.60;;
3993;SDS011;2011;48.238;13.948;2023-02-19T01:18:09;4.13;;;2.93;;
3993;SDS011;2011;48.238;13.948;2023-02-19T01:20:37;4.90;;;3.13;;
3993;SDS011;2011;48.238;13.948;2023-02-19T01:23:05;4.70;;;3.30;;
3993;SDS011;2011;48.238;13.948;2023-02-19T01:25:32;4.03;;;2.90;;
3993;SDS011;2011;48.238;13.948;2023-02-19T01:27:59;4.20;;;2.80;;
3993;SDS011;2011;48.238;13.948;2023-02-19T01:30:26;4.70;;;2.80;;
3993;SDS011;2011;48.238;13.948;2023-02-19T01:32:52;4.90;;;2.90;;
3993;SDS011;2011;48.238;13.948;2023-02-19T01:35:21;6.23;;;2.83;;
3993;SDS011;2011;48.238;13.948;2023-02-19T01:37:48;6.53;;;2.93;;
3993;SDS011;2011;48.238;13.948;2023-02-19T01:40:15;5.07;;;2.80;;
3993;SDS011;2011;48.238;13.948;2023-02-19T01:42:42;4.10;;;2.80;;
3993;SDS011;2011;48.238;13.948;2023-02-19T01:45:20;4.20;;;2.43;;
3993;SDS011;2011;48.238;13.948;2023-02-19T01:47:51;3.60;;;2.57;;
3993;SDS011;2011;48.238;13.948;2023-02-19T01:50:25;4.77;;;3.07;;
3993;SDS011;2011;48.238;13.948;2023-02-19T01:52:54;5.20;;;3.30;;
3993;SDS011;2011;48.238;13.948;2023-02-19T01:55:21;4.40;;;3.00;;
3993;SDS011;2011;48.238;13.948;2023-02-19T01:57:50;3.73;;;2.67;;
3993;SDS011;2011;48.238;13.948;2023-02-19T02:00:20;3.90;;;2.90;;
3993;SDS011;2011;48.238;13.948;2023-02-19T02:02:50;7.07;;;3.00;;
3993;SDS011;2011;48.238;13.948;2023-02-19T02:05:22;6.10;;;3.20;;
3993;SDS011;2011;48.238;13.948;2023-02-19T02:07:58;4.50;;;2.83;;
3993;SDS011;2011;48.238;13.948;2023-02-19T02:10:44;6.43;;;2.60;;
3993;SDS011;2011;48.238;13.948;2023-02-19T02:13:11;4.93;;;2.90;;
3993;SDS011;2011;48.238;13.948;2023-02-19T02:15:40;5.70;;;3.13;;
3993;SDS011;2011;48.238;13.948;2023-02-19T02:18:16;5.40;;;3.07;;
3993;SDS011;2011;48.238;13.948;2023-02-19T02:20:56;4.00;;;2.53;;
3993;SDS011;2011;48.238;13.948;2023-02-19T02:23:35;3.70;;;2.60;;
3993;SDS011;2011;48.238;13.948;2023-02-19T02:26:15;4.30;;;2.83;;
3993;SDS011;2011;48.238;13.948;2023-02-19T02:29:08;8.97;;;3.70;;
3993;SDS011;2011;48.238;13.948;2023-02-19T02:31:48;5.10;;;2.67;;
3993;SDS011;2011;48.238;13.948;2023-02-19T02:34:21;4.93;;;3.37;;
3993;SDS011;2011;48.238;13.948;2023-02-19T02:36:53;3.97;;;2.77;;
3993;SDS011;2011;48.238;13.948;2023-02-19T02:39:24;5.37;;;2.90;;
3993;SDS011;2011;48.238;13.948;2023-02-19T02:41:54;6.00;;;3.20;;
3993;SDS011;2011;48.238;13.948;2023-02-19T02:44:36;5.73;;;2.70;;
3993;SDS011;2011;48.238;13.948;2023-02-19T02:47:12;4.90;;;2.70;;
3993;SDS011;2011;48.238;13.948;2023-02-19T02:49:52;4.47;;;2.40;;
3993;SDS011;2011;48.238;13.948;2023-02-19T02:52:30;3.50;;;2.80;;
3993;SDS011;2011;48.238;13.948;2023-02-19T02:55:16;7.40;;;2.80;;
3993;SDS011;2011;48.238;13.948;2023-02-19T02:57:44;3.20;;;2.30;;
3993;SDS011;2011;48.238;13.948;2023-02-19T03:00:11;3.60;;;2.43;;
3993;SDS011;2011;48.238;13.948;2023-02-19T03:02:41;6.30;;;2.30;;
3993;SDS011;2011;48.238;13.948;2023-02-19T03:05:08;4.73;;;2.77;;
3993;SDS011;2011;48.238;13.948;2023-02-19T03:07:59;4.97;;;2.80;;
3993;SDS011;2011;48.238;13.948;2023-02-19T03:10:32;4.50;;;2.40;;
3993;SDS011;2011;48.238;13.948;2023-02-19T03:13:02;3.90;;;2.47;;
3993;SDS011;2011;48.238;13.948;2023-02-19T03:15:51;5.20;;;2.90;;
3993;SDS011;2011;48.238;13.948;2023-02-19T03:18:41;4.10;;;2.37;;
3993;SDS011;2011;48.238;13.948;2023-02-19T03:21:29;6.23;;;2.43;;
3993;SDS011;2011;48.238;13.948;2023-02-19T03:23:59;2.90;;;2.03;;
3993;SDS011;2011;48.238;13.948;2023-02-19T03:26:44;3.57;;;2.53;;
3993;SDS011;2011;48.238;13.948;2023-02-19T03:29:18;6.80;;;2.60;;
3993;SDS011;2011;48.238;13.948;2023-02-19T03:31:50;3.60;;;2.20;;
3993;SDS011;2011;48.238;13.948;2023-02-19T03:34:23;4.40;;;2.47;;
3993;SDS011;2011;48.238;13.948;2023-02-19T03:36:55;3.43;;;2.40;;
3993;SDS011;2011;48.238;13.948;2023-02-19T03:39:27;4.50;;;2.60;;
3993;SDS011;2011;48.238;13.948;2023-02-19T03:41:56;6.53;;;2.43;;
3993;SDS011;2011;48.238;13.948;2023-02-19T03:44:27;5.23;;;2.80;;
3993;SDS011;2011;48.238;13.948;2023-02-19T03:47:03;3.20;;;2.40;;
3993;SDS011;2011;48.238;13.948;2023-02-19T03:49:40;4.00;;;2.40;;
3993;SDS011;2011;48.238;13.948;2023-02-19T03:52:10;3.27;;;2.30;;
3993;SDS011;2011;48.238;13.948;2023-02-19T03:54:42;6.23;;;2.77;;
3993;SDS011;2011;48.238;13.948;2023-02-19T03:57:15;4.20;;;2.53;;
3993;SDS011;2011;48.238;13.948;2023-02-19T03:59:47;5.60;;;2.87;;
3993;SDS011;2011;48.238;13.948;2023-02-19T04:02:18;4.53;;;2.70;;
3993;SDS011;2011;48.238;13.948;2023-02-19T04:04:55;4.97;;;2.80;;
3993;SDS011;2011;48.238;13.948;2023-02-19T04:07:28;3.43;;;2.50;;
3993;SDS011;2011;48.238;13.948;2023-02-19T04:10:00;3.97;;;2.33;;
3993;SDS011;2011;48.238;13.948;2023-02-19T04:12:30;8.53;;;2.87;;
3993;SDS011;2011;48.238;13.948;2023-02-19T04:14:58;4.27;;;2.63;;
3993;SDS011;2011;48.238;13.948;2023-02-19T04:17:30;4.17;;;2.00;;
3993;SDS011;2011;48.238;13.948;2023-02-19T04:20:01;3.70;;;2.70;;
3993;SDS011;2011;48.238;13.948;2023-02-19T04:22:32;3.70;;;2.33;;
3993;SDS011;2011;48.238;13.948;2023-02-19T04:25:01;4.40;;;3.10;;
3993;SDS011;2011;48.238;13.948;2023-02-19T04:27:28;4.63;;;2.30;;
3993;SDS011;2011;48.238;13.948;2023-02-19T04:29:55;5.07;;;2.73;;
3993;SDS011;2011;48.238;13.948;2023-02-19T04:32:22;3.60;;;2.60;;
3993;SDS011;2011;48.238;13.948;2023-02-19T04:34:49;3.10;;;2.03;;
3993;SDS011;2011;48.238;13.948;2023-02-19T04:37:17;3.30;;;2.30;;
3993;SDS011;2011;48.238;13.948;2023-02-19T04:39:44;5.73;;;2.00;;
3993;SDS011;2011;48.238;13.948;2023-02-19T04:42:11;3.27;;;2.47;;
3993;SDS011;2011;48.238;13.948;2023-02-19T04:44:38;3.87;;;2.67;;
3993;SDS011;2011;48.238;13.948;2023-02-19T04:47:05;3.20;;;2.30;;
3993;SDS011;2011;48.238;13.948;2023-02-19T04:49:32;3.70;;;2.57;;
3993;SDS011;2011;48.238;13.948;2023-02-19T04:51:59;5.17;;;2.40;;
3993;SDS011;2011;48.238;13.948;2023-02-19T04:54:27;5.73;;;2.57;;
3993;SDS011;2011;48.238;13.948;2023-02-19T04:56:54;3.60;;;2.10;;
3993;SDS011;2011;48.238;13.948;2023-02-19T04:59:21;3.40;;;2.43;;
3993;SDS011;2011;48.238;13.948;2023-02-19T05:01:48;5.10;;;2.70;;
3993;SDS011;2011;48.238;13.948;2023-02-19T05:04:15;2.60;;;1.83;;
3993;SDS011;2011;48.238;13.948;2023-02-19T05:06:42;3.70;;;2.33;;
3993;SDS011;2011;48.238;13.948;2023-02-19T05:09:09;3.27;;;2.10;;
3993;SDS011;2011;48.238;13.948;2023-02-19T05:11:37;5.77;;;2.10;;
3993;SDS011;2011;48.238;13.948;2023-02-19T05:14:04;5.30;;;1.80;;
3993;SDS011;2011;48.238;13.948;2023-02-19T05:16:31;4.00;;;1.87;;
3993;SDS011;2011;48.238;13.948;2023-02-19T05:18:58;3.93;;;2.30;;
3993;SDS011;2011;48.238;13.948;2023-02-19T05:21:25;3.30;;;2.10;;
3993;SDS011;2011;48.238;13.948;2023-02-19T05:23:52;5.77;;;2.37;;
3993;SDS011;2011;48.238;13.948;2023-02-19T05:26:19;8.47;;;2.33;;
3993;SDS011;2011;48.238;13.948;2023-02-19T05:28:50;4.17;;;2.30;;
3993;SDS011;2011;48.238;13.948;2023-02-19T05:31:19;4.43;;;2.07;;
3993;SDS011;2011;48.238;13.948;2023-02-19T05:33:46;2.63;;;1.77;;
3993;SDS011;2011;48.238;13.948;2023-02-19T05:36:15;3.23;;;2.30;;
3993;SDS011;2011;48.238;13.948;2023-02-19T05:38:43;4.30;;;2.10;;
3993;SDS011;2011;48.238;13.948;2023-02-19T05:41:10;4.10;;;2.63;;
3993;SDS011;2011;48.238;13.948;2023-02-19T05:43:38;3.40;;;2.30;;
3993;SDS011;2011;48.238;13.948;2023-02-19T05:46:08;5.30;;;3.10;;
3993;SDS011;2011;48.238;13.948;2023-02-19T05:48:36;5.47;;;3.20;;
3993;SDS011;2011;48.238;13.948;2023-02-19T05:51:03;7.50;;;2.97;;
3993;SDS011;2011;48.238;13.948;2023-02-19T05:53:31;3.70;;;2.50;;
3993;SDS011;2011;48.238;13.948;2023-02-19T05:55:58;4.13;;;2.70;;
3993;SDS011;2011;48.238;13.948;2023-02-19T05:58:26;4.90;;;2.90;;
3993;SDS011;2011;48.238;13.948;2023-02-19T06:00:53;5.70;;;2.83;;
3993;SDS011;2011;48.238;13.948;2023-02-19T06:03:22;4.60;;;3.10;;
3993;SDS011;2011;48.238;13.948;2023-02-19T06:05:49;3.83;;;2.57;;
3993;SDS011;2011;48.238;13.948;2023-02-19T06:08:16;3.83;;;2.73;;
3993;SDS011;2011;48.238;13.948;2023-02-19T06:10:43;4.87;;;3.00;;
3993;SDS011;2011;48.238;13.948;2023-02-19T06:13:10;4.53;;;2.63;;
3993;SDS011;2011;48.238;13.948;2023-02-19T06:15:37;3.67;;;2.63;;
3993;SDS011;2011;48.238;13.948;2023-02-19T06:18:04;3.33;;;2.20;;
3993;SDS011;2011;48.238;13.948;2023-02-19T06:20:32;4.03;;;2.63;;
3993;SDS011;2011;48.238;13.948;2023-02-19T06:22:59;4.93;;;2.77;;
3993;SDS011;2011;48.238;13.948;2023-02-19T06:25:26;5.17;;;2.43;;
3993;SDS011;2011;48.238;13.948;2023-02-19T06:27:53;4.67;;;2.57;;
3993;SDS011;2011;48.238;13.948;2023-02-19T06:30:20;3.50;;;2.40;;
3993;SDS011;2011;48.238;13.948;2023-02-19T06:32:47;4.50;;;2.33;;
3993;SDS011;2011;48.238;13.948;2023-02-19T06:35:17;3.10;;;2.20;;
3993;SDS011;2011;48.238;13.948;2023-02-19T06:37:46;3.27;;;2.03;;
3993;SDS011;2011;48.238;13.948;2023-02-19T06:40:13;4.30;;;2.23;;
3993;SDS011;2011;48.238;13.948;2023-02-19T06:42:40;3.40;;;2.03;;
3993;SDS011;2011;48.238;13.948;2023-02-19T06:45:08;7.93;;;2.33;;
3993;SDS011;2011;48.238;13.948;2023-02-19T06:47:35;3.17;;;1.97;;
3993;SDS011;2011;48.238;13.948;2023-02-19T06:50:02;2.80;;;1.90;;
3993;SDS011;2011;48.238;13.948;2023-02-19T06:52:29;2.13;;;1.80;;
3993;SDS011;2011;48.238;13.948;2023-02-19T06:54:57;3.00;;;2.13;;
3993;SDS011;2011;48.238;13.948;2023-02-19T06:57:24;3.00;;;2.03;;
3993;SDS011;2011;48.238;13.948;2023-02-19T06:59:51;5.00;;;2.33;;
3993;SDS011;2011;48.238;13.948;2023-02-19T07:02:18;4.80;;;2.90;;
3993;SDS011;2011;48.238;13.948;2023-02-19T07:04:45;5.43;;;2.17;;
3993;SDS011;2011;48.238;13.948;2023-02-19T07:07:11;2.67;;;2.13;;
3993;SDS011;2011;48.238;13.948;2023-02-19T07:09:38;3.43;;;2.47;;
3993;SDS011;2011;48.238;13.948;2023-02-19T07:12:07;4.30;;;2.70;;
3993;SDS011;2011;48.238;13.948;2023-02-19T07:14:34;11.53;;;2.10;;
3993;SDS011;2011;48.238;13.948;2023-02-19T07:17:01;2.50;;;1.90;;
3993;SDS011;2011;48.238;13.948;2023-02-19T07:19:28;4.73;;;2.70;;
3993;SDS011;2011;48.238;13.948;2023-02-19T07:21:55;3.37;;;1.90;;
3993;SDS011;2011;48.238;13.948;2023-02-19T07:24:22;4.40;;;2.73;;
3993;SDS011;2011;48.238;13.948;2023-02-19T07:26:49;4.27;;;2.10;;
3993;SDS011;2011;48.238;13.948;2023-02-19T07:29:17;3.53;;;2.07;;
3993;SDS011;2011;48.238;13.948;2023-02-19T07:31:44;5.90;;;2.30;;
3993;SDS011;2011;48.238;13.948;2023-02-19T07:34:11;2.87;;;1.90;;
3993;SDS011;2011;48.238;13.948;2023-02-19T07:36:38;3.50;;;2.17;;
3993;SDS011;2011;48.238;13.948;2023-02-19T07:39:05;3.87;;;2.00;;
3993;SDS011;2011;48.238;13.948;2023-02-19T07:41:31;4.13;;;2.13;;
3993;SDS011;2011;48.238;13.948;2023-02-19T07:43:58;3.83;;;2.00;;
3993;SDS011;2011;48.238;13.948;2023-02-19T07:46:27;3.13;;;1.80;;
3993;SDS011;2011;48.238;13.948;2023-02-19T07:48:55;2.80;;;1.80;;
3993;SDS011;2011;48.238;13.948;2023-02-19T07:51:22;2.90;;;1.73;;
3993;SDS011;2011;48.238;13.948;2023-02-19T07:53:49;2.83;;;1.90;;
3993;SDS011;2011;48.238;13.948;2023-02-19T07:56:16;3.20;;;1.73;;
3993;SDS011;2011;48.238;13.948;2023-02-19T07:58:44;3.00;;;1.80;;
3993;SDS011;2011;48.238;13.948;2023-02-19T08:01:12;4.37;;;1.83;;
3993;SDS011;2011;48.238;13.948;2023-02-19T08:03:42;2.30;;;1.60;;
3993;SDS011;2011;48.238;13.948;2023-02-19T08:06:08;4.10;;;2.10;;
3993;SDS011;2011;48.238;13.948;2023-02-19T08:08:36;2.13;;;1.57;;
3993;SDS011;2011;48.238;13.948;2023-02-19T08:11:03;3.90;;;2.10;;
3993;SDS011;2011;48.238;13.948;2023-02-19T08:13:48;3.20;;;1.70;;
3993;SDS011;2011;48.238;13.948;2023-02-19T08:16:17;9.93;;;1.57;;
3993;SDS011;2011;48.238;13.948;2023-02-19T08:18:46;2.73;;;1.70;;
3993;SDS011;2011;48.238;13.948;2023-02-19T08:21:13;3.07;;;1.93;;
3993;SDS011;2011;48.238;13.948;2023-02-19T08:23:42;3.10;;;1.80;;
3993;SDS011;2011;48.238;13.948;2023-02-19T08:26:10;2.70;;;1.67;;
3993;SDS011;2011;48.238;13.948;2023-02-19T08:28:37;3.70;;;2.10;;
3993;SDS011;2011;48.238;13.948;2023-02-19T08:31:04;3.50;;;2.20;;
3993;SDS011;2011;48.238;13.948;2023-02-19T08:33:33;2.27;;;1.53;;
3993;SDS011;2011;48.238;13.948;2023-02-19T08:36:02;3.90;;;1.70;;
3993;SDS011;2011;48.238;13.948;2023-02-19T08:38:30;2.53;;;1.87;;
3993;SDS011;2011;48.238;13.948;2023-02-19T08:41:02;6.10;;;2.13;;
3993;SDS011;2011;48.238;13.948;2023-02-19T08:43:30;3.30;;;1.70;;
3993;SDS011;2011;48.238;13.948;2023-02-19T08:45:57;3.60;;;2.10;;
3993;SDS011;2011;48.238;13.948;2023-02-19T08:48:24;2.13;;;1.57;;
3993;SDS011;2011;48.238;13.948;2023-02-19T08:50:54;2.87;;;1.60;;
3993;SDS011;2011;48.238;13.948;2023-02-19T08:53:23;1.57;;;1.20;;
3993;SDS011;2011;48.238;13.948;2023-02-19T08:55:50;2.13;;;1.53;;
3993;SDS011;2011;48.238;13.948;2023-02-19T08:58:18;1.80;;;1.30;;
3993;SDS011;2011;48.238;13.948;2023-02-19T09:00:45;3.07;;;1.27;;
3993;SDS011;2011;48.238;13.948;2023-02-19T09:03:11;1.70;;;1.10;;
3993;SDS011;2011;48.238;13.948;2023-02-19T09:05:39;4.10;;;1.00;;
3993;SDS011;2011;48.238;13.948;2023-02-19T09:08:06;4.40;;;1.23;;
3993;SDS011;2011;48.238;13.948;2023-02-19T09:10:35;1.37;;;0.90;;
3993;SDS011;2011;48.238;13.948;2023-02-19T09:13:01;1.40;;;1.00;;
3993;SDS011;2011;48.238;13.948;2023-02-19T09:15:28;1.23;;;0.90;;
3993;SDS011;2011;48.238;13.948;2023-02-19T09:17:56;1.60;;;1.00;;
3993;SDS011;2011;48.238;13.948;2023-02-19T09:20:23;1.90;;;1.00;;
3993;SDS011;2011;48.238;13.948;2023-02-19T09:22:54;1.60;;;1.10;;
3993;SDS011;2011;48.238;13.948;2023-02-19T09:25:22;3.40;;;1.00;;
3993;SDS011;2011;48.238;13.948;2023-02-19T09:27:50;1.93;;;1.10;;
3993;SDS011;2011;48.238;13.948;2023-02-19T09:30:20;1.63;;;0.90;;
3993;SDS011;2011;48.238;13.948;2023-02-19T09:32:47;2.33;;;1.30;;
3993;SDS011;2011;48.238;13.948;2023-02-19T09:35:14;1.30;;;0.80;;
3993;SDS011;2011;48.238;13.948;2023-02-19T09:37:41;1.63;;;1.10;;
3993;SDS011;2011;48.238;13.948;2023-02-19T09:40:08;1.80;;;1.30;;
3993;SDS011;2011;48.238;13.948;2023-02-19T09:42:35;1.70;;;1.00;;
3993;SDS011;2011;48.238;13.948;2023-02-19T09:45:09;1.53;;;1.00;;
3993;SDS011;2011;48.238;13.948;2023-02-19T09:47:44;2.43;;;1.10;;
3993;SDS011;2011;48.238;13.948;2023-02-19T09:50:13;1.50;;;1.00;;
3993;SDS011;2011;48.238;13.948;2023-02-19T09:52:44;2.20;;;1.20;;
3993;SDS011;2011;48.238;13.948;2023-02-19T09:55:17;5.20;;;1.20;;
3993;SDS011;2011;48.238;13.948;2023-02-19T09:57:53;2.60;;;1.30;;
3993;SDS011;2011;48.238;13.948;2023-02-19T10:00:24;1.90;;;0.97;;
3993;SDS011;2011;48.238;13.948;2023-02-19T10:02:53;2.33;;;0.93;;
3993;SDS011;2011;48.238;13.948;2023-02-19T10:05:23;1.90;;;1.20;;
3993;SDS011;2011;48.238;13.948;2023-02-19T10:07:51;1.57;;;0.97;;
3993;SDS011;2011;48.238;13.948;2023-02-19T10:10:22;1.20;;;0.90;;
3993;SDS011;2011;48.238;13.948;2023-02-19T10:12:54;2.40;;;1.10;;
3993;SDS011;2011;48.238;13.948;2023-02-19T10:15:27;2.03;;;1.10;;
3993;SDS011;2011;48.238;13.948;2023-02-19T10:17:57;1.40;;;1.00;;
3993;SDS011;2011;48.238;13.948;2023-02-19T10:20:25;2.20;;;1.37;;
3993;SDS011;2011;48.238;13.948;2023-02-19T10:22:59;1.47;;;1.10;;
3993;SDS011;2011;48.238;13.948;2023-02-19T10:25:28;1.80;;;1.40;;
3993;SDS011;2011;48.238;13.948;2023-02-19T10:27:57;2.07;;;1.13;;
3993;SDS011;2011;48.238;13.948;2023-02-19T10:30:27;1.57;;;1.03;;
3993;SDS011;2011;48.238;13.948;2023-02-19T10:32:59;1.80;;;1.20;;
3993;SDS011;2011;48.238;13.948;2023-02-19T10:35:29;3.07;;;1.10;;
3993;SDS011;2011;48.238;13.948;2023-02-19T10:38:00;2.73;;;1.20;;
3993;SDS011;2011;48.238;13.948;2023-02-19T10:40:30;2.50;;;1.43;;
3993;SDS011;2011;48.238;13.948;2023-02-19T10:43:00;2.60;;;1.10;;
3993;SDS011;2011;48.238;13.948;2023-02-19T10:45:31;2.23;;;1.10;;
3993;SDS011;2011;48.238;13.948;2023-02-19T10:48:02;2.17;;;1.27;;
3993;SDS011;2011;48.238;13.948;2023-02-19T10:50:30;1.40;;;0.80;;
3993;SDS011;2011;48.238;13.948;2023-02-19T10:53:01;2.07;;;0.90;;
3993;SDS011;2011;48.238;13.948;2023-02-19T10:55:30;1.50;;;1.07;;
3993;SDS011;2011;48.238;13.948;2023-02-19T10:58:14;2.07;;;0.90;;
3993;SDS011;2011;48.238;13.948;2023-02-19T11:00:53;1.70;;;1.03;;
3993;SDS011;2011;48.238;13.948;2023-02-19T11:03:39;1.77;;;1.20;;
3993;SDS011;2011;48.238;13.948;2023-02-19T11:06:07;2.33;;;0.83;;
3993;SDS011;2011;48.238;13.948;2023-02-19T11:08:44;1.90;;;1.10;;
3993;SDS011;2011;48.238;13.948;2023-02-19T11:11:27;2.83;;;1.00;;
3993;SDS011;2011;48.238;13.948;2023-02-19T11:14:00;1.77;;;0.90;;
3993;SDS011;2011;48.238;13.948;2023-02-19T11:16:38;1.57;;;0.90;;
3993;SDS011;2011;48.238;13.948;2023-02-19T11:19:19;2.47;;;1.00;;
3993;SDS011;2011;48.238;13.948;2023-02-19T11:21:52;1.77;;;1.10;;
3993;SDS011;2011;48.238;13.948;2023-02-19T11:24:21;1.40;;;0.80;;
3993;SDS011;2011;48.238;13.948;2023-02-19T11:26:52;1.13;;;0.70;;
3993;SDS011;2011;48.238;13.948;2023-02-19T11:29:20;1.33;;;0.77;;
3993;SDS011;2011;48.238;13.948;2023-02-19T11:31:51;1.40;;;0.90;;
3993;SDS011;2011;48.238;13.948;2023-02-19T11:34:25;1.20;;;0.70;;
3993;SDS011;2011;48.238;13.948;2023-02-19T11:37:06;2.30;;;1.07;;
3993;SDS011;2011;48.238;13.948;2023-02-19T11:39:35;1.90;;;0.80;;
3993;SDS011;2011;48.238;13.948;2023-02-19T11:42:09;1.30;;;0.73;;
3993;SDS011;2011;48.238;13.948;2023-02-19T11:44:48;1.73;;;0.90;;
3993;SDS011;2011;48.238;13.948;2023-02-19T11:47:31;1.60;;;0.90;;
3993;SDS011;2011;48.238;13.948;2023-02-19T11:50:25;2.17;;;0.87;;
3993;SDS011;2011;48.238;13.948;2023-02-19T11:53:00;2.33;;;0.90;;
3993;SDS011;2011;48.238;13.948;2023-02-19T11:55:42;1.30;;;0.70;;
3993;SDS011;2011;48.238;13.948;2023-02-19T11:58:31;1.37;;;0.80;;
3993;SDS011;2011;48.238;13.948;2023-02-19T12:01:27;2.03;;;0.93;;
3993;SDS011;2011;48.238;13.948;2023-02-19T12:04:14;1.20;;;0.70;;
3993;SDS011;2011;48.238;13.948;2023-02-19T12:07:06;1.83;;;0.83;;
3993;SDS011;2011;48.238;13.948;2023-02-19T12:09:42;2.80;;;0.93;;
3993;SDS011;2011;48.238;13.948;2023-02-19T12:12:24;1.40;;;0.80;;
3993;SDS011;2011;48.238;13.948;2023-02-19T12:15:09;2.67;;;0.80;;
3993;SDS011;2011;48.238;13.948;2023-02-19T12:17:54;2.17;;;0.93;;
3993;SDS011;2011;48.238;13.948;2023-02-19T12:20:42;1.90;;;1.00;;
3993;SDS011;2011;48.238;13.948;2023-02-19T12:23:23;10.70;;;1.50;;
3993;SDS011;2011;48.238;13.948;2023-02-19T12:26:00;2.00;;;1.00;;
3993;SDS011;2011;48.238;13.948;2023-02-19T12:34:23;2.43;;;1.17;;
3993;SDS011;2011;48.238;13.948;2023-02-19T12:37:14;2.23;;;1.13;;
3993;SDS011;2011;48.238;13.948;2023-02-19T12:39:52;2.43;;;1.10;;
3993;SDS011;2011;48.238;13.948;2023-02-19T12:42:35;2.57;;;1.40;;
3993;SDS011;2011;48.238;13.948;2023-02-19T12:45:15;1.83;;;1.10;;
3993;SDS011;2011;48.238;13.948;2023-02-19T12:47:45;2.83;;;1.10;;
3993;SDS011;2011;48.238;13.948;2023-02-19T12:50:20;1.80;;;1.20;;
3993;SDS011;2011;48.238;13.948;2023-02-19T12:52:51;1.93;;;1.10;;
3993;SDS011;2011;48.238;13.948;2023-02-19T12:55:23;2.53;;;1.10;;
3993;SDS011;2011;48.238;13.948;2023-02-19T12:57:54;1.70;;;1.00;;
3993;SDS011;2011;48.238;13.948;2023-02-19T13:00:27;1.80;;;0.93;;
3993;SDS011;2011;48.238;13.948;2023-02-19T13:02:58;1.83;;;1.03;;
3993;SDS011;2011;48.238;13.948;2023-02-19T13:05:33;1.50;;;0.93;;
3993;SDS011;2011;48.238;13.948;2023-02-19T13:08:11;1.97;;;1.10;;
3993;SDS011;2011;48.238;13.948;2023-02-19T13:10:44;2.07;;;1.13;;
3993;SDS011;2011;48.238;13.948;2023-02-19T13:13:17;1.80;;;1.10;;
3993;SDS011;2011;48.238;13.948;2023-02-19T13:15:49;1.70;;;0.90;;
3993;SDS011;2011;48.238;13.948;2023-02-19T13:18:21;1.93;;;1.00;;
3993;SDS011;2011;48.238;13.948;2023-02-19T13:20:53;2.77;;;1.20;;
3993;SDS011;2011;48.238;13.948;2023-02-19T13:23:22;2.13;;;1.07;;
3993;SDS011;2011;48.238;13.948;2023-02-19T13:26:13;2.27;;;1.00;;
3993;SDS011;2011;48.238;13.948;2023-02-19T13:28:58;3.83;;;1.10;;
3993;SDS011;2011;48.238;13.948;2023-02-19T13:31:53;3.50;;;1.10;;
3993;SDS011;2011;48.238;13.948;2023-02-19T13:34:39;3.97;;;1.30;;
3993;SDS011;2011;48.238;13.948;2023-02-19T13:37:13;2.40;;;1.40;;
3993;SDS011;2011;48.238;13.948;2023-02-19T13:39:45;8.00;;;1.30;;
3993;SDS011;2011;48.238;13.948;2023-02-19T13:42:22;6.10;;;1.30;;
3993;SDS011;2011;48.238;13.948;2023-02-19T13:44:51;3.10;;;1.23;;
3993;SDS011;2011;48.238;13.948;2023-02-19T13:50:16;1.80;;;1.03;;
3993;SDS011;2011;48.238;13.948;2023-02-19T13:52:46;2.13;;;1.10;;
3993;SDS011;2011;48.238;13.948;2023-02-19T14:07:33;1.90;;;0.93;;
3993;SDS011;2011;48.238;13.948;2023-02-19T14:16:53;4.00;;;1.10;;
3993;SDS011;2011;48.238;13.948;2023-02-19T14:28:26;6.23;;;1.20;;
3993;SDS011;2011;48.238;13.948;2023-02-19T14:30:58;2.00;;;1.10;;
3993;SDS011;2011;48.238;13.948;2023-02-19T14:33:28;2.30;;;1.10;;
3993;SDS011;2011;48.238;13.948;2023-02-19T14:35:58;2.30;;;1.50;;
3993;SDS011;2011;48.238;13.948;2023-02-19T14:38:32;2.20;;;1.27;;
3993;SDS011;2011;48.238;13.948;2023-02-19T14:41:02;2.27;;;1.00;;
3993;SDS011;2011;48.238;13.948;2023-02-19T14:43:31;1.30;;;0.83;;
3993;SDS011;2011;48.238;13.948;2023-02-19T14:46:01;1.50;;;1.00;;
3993;SDS011;2011;48.238;13.948;2023-02-19T14:48:33;1.90;;;1.00;;
3993;SDS011;2011;48.238;13.948;2023-02-19T14:51:05;3.83;;;1.07;;
3993;SDS011;2011;48.238;13.948;2023-02-19T14:53:38;2.93;;;0.97;;
3993;SDS011;2011;48.238;13.948;2023-02-19T14:56:15;2.07;;;1.00;;
3993;SDS011;2011;48.238;13.948;2023-02-19T14:58:45;6.90;;;1.30;;
3993;SDS011;2011;48.238;13.948;2023-02-19T15:01:30;1.83;;;1.10;;
3993;SDS011;2011;48.238;13.948;2023-02-19T15:03:57;4.90;;;1.30;;
3993;SDS011;2011;48.238;13.948;2023-02-19T15:06:24;4.10;;;1.00;;
3993;SDS011;2011;48.238;13.948;2023-02-19T15:08:56;4.20;;;1.40;;
3993;SDS011;2011;48.238;13.948;2023-02-19T15:11:26;1.87;;;1.03;;
3993;SDS011;2011;48.238;13.948;2023-02-19T15:13:56;2.30;;;1.10;;
3993;SDS011;2011;48.238;13.948;2023-02-19T15:16:26;4.03;;;1.30;;
3993;SDS011;2011;48.238;13.948;2023-02-19T15:18:54;3.27;;;1.20;;
3993;SDS011;2011;48.238;13.948;2023-02-19T15:21:24;2.00;;;1.30;;
3993;SDS011;2011;48.238;13.948;2023-02-19T15:23:54;1.60;;;1.07;;
3993;SDS011;2011;48.238;13.948;2023-02-19T15:26:25;3.50;;;1.20;;
3993;SDS011;2011;48.238;13.948;2023-02-19T15:29:01;1.93;;;1.10;;
3993;SDS011;2011;48.238;13.948;2023-02-19T15:31:34;3.97;;;1.30;;
3993;SDS011;2011;48.238;13.948;2023-02-19T15:34:01;2.10;;;1.20;;
3993;SDS011;2011;48.238;13.948;2023-02-19T15:36:28;2.57;;;1.20;;
3993;SDS011;2011;48.238;13.948;2023-02-19T15:39:00;1.70;;;1.10;;
3993;SDS011;2011;48.238;13.948;2023-02-19T15:41:29;1.60;;;1.00;;
3993;SDS011;2011;48.238;13.948;2023-02-19T15:44:09;8.13;;;1.10;;
3993;SDS011;2011;48.238;13.948;2023-02-19T15:46:49;3.80;;;1.13;;
3993;SDS011;2011;48.238;13.948;2023-02-19T15:49:18;3.97;;;1.40;;
3993;SDS011;2011;48.238;13.948;2023-02-19T15:51:50;3.50;;;1.10;;
3993;SDS011;2011;48.238;13.948;2023-02-19T15:54:22;2.50;;;1.13;;
3993;SDS011;2011;48.238;13.948;2023-02-19T15:56:53;3.50;;;1.57;;
3993;SDS011;2011;48.238;13.948;2023-02-19T15:59:25;2.67;;;1.40;;
3993;SDS011;2011;48.238;13.948;2023-02-19T16:01:56;2.83;;;1.30;;